Time;durP1;ratioP1;P1;durP2;ratioP2;P2;SDS_P1;SDS_P2;PMS_P1;PMS_P2;Temp;Humidity;BMP_temperature;BMP_pressure;BME280_temperature;BME280_humidity;BME280_pressure;Samples;Min_cycle;Max_cycle;Signal;HPM_P1;HPM_P2
2021/12/03 00:01:34;;;;;;;6.80;2.17;;;;;;;0.31;100.00;100664.25;5056807;28;20479;-75
2021/12/03 00:04:06;;;;;;;8.90;2.00;;;;;;;0.32;100.00;100688.44;5054422;28;20084;-75
2021/12/03 00:06:38;;;;;;;8.35;1.95;;;;;;;0.30;100.00;100667.75;5038040;28;20025;-76
2021/12/03 00:09:06;;;;;;;7.32;2.08;;;;;;;0.40;100.00;100700.16;5055801;28;20340;-75
2021/12/03 00:11:31;;;;;;;5.85;2.13;;;;;;;0.50;100.00;100674.63;5065269;28;20422;-74
2021/12/03 00:13:57;;;;;;;9.20;2.45;;;;;;;0.47;100.00;100671.31;5063269;28;20035;-74
2021/12/03 00:16:23;;;;;;;8.55;2.20;;;;;;;0.36;100.00;100648.44;5065729;28;20021;-75
2021/12/03 00:18:49;;;;;;;6.65;2.30;;;;;;;0.26;100.00;100624.66;5067577;28;20032;-74
2021/12/03 00:21:16;;;;;;;10.52;2.67;;;;;;;-0.07;100.00;100611.47;5049992;28;20029;-75
2021/12/03 00:23:45;;;;;;;6.80;2.28;;;;;;;0.36;100.00;100692.59;5021097;28;20037;-75
2021/12/03 00:26:13;;;;;;;7.78;2.47;;;;;;;0.35;100.00;100662.34;5057302;28;20055;-75
2021/12/03 00:28:39;;;;;;;7.75;2.20;;;;;;;0.46;100.00;100690.44;5054307;28;20021;-76
2021/12/03 00:31:09;;;;;;;9.38;2.58;;;;;;;0.13;100.00;100628.72;5053588;28;20473;-75
2021/12/03 00:33:39;;;;;;;8.95;2.72;;;;;;;0.24;100.00;100651.63;5053357;28;20447;-75
2021/12/03 00:36:18;;;;;;;10.25;2.78;;;;;;;0.09;100.00;100632.38;5053261;28;20043;-75
2021/12/03 00:38:48;;;;;;;8.30;2.70;;;;;;;-0.08;100.00;100631.41;5055309;28;20021;-75
2021/12/03 00:41:18;;;;;;;8.20;2.50;;;;;;;0.03;100.00;100636.13;5053264;28;20108;-76
2021/12/03 00:43:46;;;;;;;7.72;2.67;;;;;;;0.05;100.00;100630.88;5050748;28;20029;-76
2021/12/03 00:46:16;;;;;;;9.25;2.88;;;;;;;0.20;100.00;100667.34;5062786;28;20032;-75
2021/12/03 00:48:43;;;;;;;11.07;3.05;;;;;;;-0.07;100.00;100642.63;5061302;28;20020;-76
2021/12/03 00:51:12;;;;;;;9.50;2.40;;;;;;;-0.05;100.00;100622.63;5069069;28;20060;-75
2021/12/03 00:53:38;;;;;;;9.93;2.75;;;;;;;0.07;100.00;100653.25;5069369;28;20047;-76
2021/12/03 00:56:05;;;;;;;11.35;3.20;;;;;;;0.23;100.00;100679.34;5058242;28;20031;-76
2021/12/03 00:58:30;;;;;;;10.25;3.33;;;;;;;0.13;100.00;100639.13;5059265;28;20051;-75
2021/12/03 01:00:57;;;;;;;12.13;3.15;;;;;;;0.20;100.00;100662.16;5074915;28;20025;-75
2021/12/03 01:03:23;;;;;;;12.25;3.30;;;;;;;0.39;100.00;100676.88;5048183;28;20029;-75
2021/12/03 01:05:51;;;;;;;8.52;3.53;;;;;;;0.25;100.00;100633.38;5059488;28;20021;-75
2021/12/03 01:08:20;;;;;;;13.38;3.38;;;;;;;0.14;100.00;100607.06;5064361;28;20166;-74
2021/12/03 01:10:46;;;;;;;11.95;3.55;;;;;;;0.55;100.00;100664.84;5071784;28;20021;-75
2021/12/03 01:13:12;;;;;;;13.23;3.67;;;;;;;0.34;100.00;100603.50;5072818;28;20059;-75
2021/12/03 01:15:50;;;;;;;11.57;3.72;;;;;;;0.18;100.00;100621.56;5071037;28;20029;-75
2021/12/03 01:18:16;;;;;;;13.95;3.85;;;;;;;0.52;100.00;100643.34;5071883;28;20036;-75
2021/12/03 01:20:45;;;;;;;12.88;3.72;;;;;;;0.04;100.00;100596.25;5066279;28;20411;-75
2021/12/03 01:23:12;;;;;;;15.38;4.53;;;;;;;0.51;100.00;100663.31;5069470;28;20033;-75
2021/12/03 01:25:39;;;;;;;10.95;4.18;;;;;;;0.45;100.00;100649.75;5068174;28;20466;-75
2021/12/03 01:28:05;;;;;;;12.05;4.57;;;;;;;0.33;100.00;100646.00;5067029;28;20025;-76
2021/12/03 01:30:34;;;;;;;12.23;4.38;;;;;;;0.63;100.00;100662.72;5059208;28;20056;-76
2021/12/03 01:33:05;;;;;;;11.45;4.38;;;;;;;0.64;100.00;100671.38;5053179;22;20093;-76
2021/12/03 01:35:36;;;;;;;10.23;4.30;;;;;;;0.18;100.00;100668.31;5060202;28;20071;-75
2021/12/03 01:38:09;;;;;;;13.43;4.78;;;;;;;-0.09;100.00;100621.06;5093049;28;20035;-74
2021/12/03 01:40:37;;;;;;;11.57;4.68;;;;;;;0.14;100.00;100671.97;5074667;28;20124;-76
2021/12/03 01:43:06;;;;;;;14.05;4.88;;;;;;;-0.31;100.00;100610.84;5074800;28;20024;-76
2021/12/03 01:45:38;;;;;;;12.43;4.78;;;;;;;0.03;100.00;100662.06;5058952;28;20347;-76
2021/12/03 01:48:04;;;;;;;11.43;5.10;;;;;;;0.02;100.00;100681.16;5074978;28;20068;-75
2021/12/03 01:50:43;;;;;;;11.90;4.70;;;;;;;-0.43;100.00;100613.06;5094056;28;20100;-75
2021/12/03 01:53:11;;;;;;;12.77;5.13;;;;;;;0.04;100.00;100678.50;5058576;28;20032;-74
2021/12/03 01:55:42;;;;;;;13.52;5.30;;;;;;;0.08;100.00;100670.50;5074695;28;20355;-75
2021/12/03 01:58:07;;;;;;;12.98;5.35;;;;;;;-0.03;100.00;100649.38;5058553;28;20031;-76
2021/12/03 02:00:39;;;;;;;13.52;5.57;;;;;;;0.10;100.00;100663.47;5044197;28;20354;-76
2021/12/03 02:03:07;;;;;;;10.75;5.13;;;;;;;-0.24;100.00;100623.47;5048149;28;20033;-75
2021/12/03 02:05:33;;;;;;;14.90;5.55;;;;;;;0.12;100.00;100676.41;5085202;28;20020;-76
2021/12/03 02:08:02;;;;;;;14.02;5.65;;;;;;;0.08;100.00;100615.13;5063615;28;20051;-75
2021/12/03 02:10:27;;;;;;;9.82;5.03;;;;;;;0.27;100.00;100623.72;5074012;28;20028;-75
2021/12/03 02:12:56;;;;;;;10.32;4.90;;;;;;;0.03;100.00;100611.91;5080532;28;20034;-75
2021/12/03 02:15:26;;;;;;;10.88;5.43;;;;;;;0.23;100.00;100668.97;5093056;28;20032;-75
2021/12/03 02:17:53;;;;;;;15.07;6.18;;;;;;;0.08;100.00;100634.13;5069015;28;20032;-75
2021/12/03 02:20:22;;;;;;;15.20;5.47;;;;;;;0.17;100.00;100620.72;5068626;28;20031;-76
2021/12/03 02:22:49;;;;;;;14.80;5.18;;;;;;;-0.11;100.00;100643.69;5074567;28;20027;-75
2021/12/03 02:25:20;;;;;;;11.02;5.63;;;;;;;-0.11;100.00;100620.34;5087103;28;20031;-75
2021/12/03 02:27:54;;;;;;;15.88;5.00;;;;;;;-0.06;100.00;100615.78;5082605;28;20032;-75
2021/12/03 02:30:22;;;;;;;;;;;;;;;0.20;100.00;100641.38;5068493;28;20036;-75
2021/12/03 02:32:52;;;;;;;12.02;5.15;;;;;;;0.09;100.00;100594.31;5092458;28;19934;-75
2021/12/03 02:35:21;;;;;;;12.50;4.88;;;;;;;0.08;100.00;100613.38;5073231;28;20493;-75
2021/12/03 02:37:51;;;;;;;10.90;4.72;;;;;;;0.28;100.00;100615.03;5069645;28;20130;-75
2021/12/03 02:40:17;;;;;;;13.25;4.50;;;;;;;0.38;100.00;100633.63;5078401;28;20062;-76
2021/12/03 02:42:44;;;;;;;10.07;4.13;;;;;;;0.30;100.00;100605.44;5057786;28;20031;-75
2021/12/03 02:45:14;;;;;;;9.20;4.18;;;;;;;0.37;100.00;100639.75;5073868;28;20680;-76
2021/12/03 02:47:43;;;;;;;9.50;4.10;;;;;;;0.34;100.00;100621.69;5060438;28;20023;-75
2021/12/03 02:50:11;;;;;;;11.50;4.57;;;;;;;0.34;100.00;100606.97;5060912;28;20028;-75
2021/12/03 02:52:36;;;;;;;10.95;4.03;;;;;;;0.55;100.00;100646.66;5077613;28;20385;-76
2021/12/03 02:55:04;;;;;;;12.95;4.22;;;;;;;0.59;100.00;100643.00;5096248;28;20020;-75
2021/12/03 02:57:30;;;;;;;10.57;4.03;;;;;;;0.74;100.00;100641.41;5060380;28;20032;-75
2021/12/03 02:59:56;;;;;;;9.13;4.00;;;;;;;0.70;100.00;100637.28;5095870;28;20031;-75
2021/12/03 03:02:21;;;;;;;10.93;3.60;;;;;;;0.51;100.00;100602.72;5096336;28;20051;-75
2021/12/03 03:04:51;;;;;;;8.32;3.38;;;;;;;0.34;100.00;100587.91;5078773;28;20381;-74
2021/12/03 03:07:17;;;;;;;13.75;3.60;;;;;;;0.56;100.00;100611.13;5096548;28;20115;-75
2021/12/03 03:09:44;;;;;;;12.20;3.80;;;;;;;0.66;100.00;100630.56;5062133;28;20044;-74
2021/12/03 03:12:14;;;;;;;10.88;3.53;;;;;;;0.34;100.00;100561.94;5062835;28;20020;-75
2021/12/03 03:14:45;;;;;;;9.93;3.38;;;;;;;0.83;100.00;100621.94;5096908;28;20024;-75
2021/12/03 03:17:11;;;;;;;10.98;3.60;;;;;;;0.68;100.00;100623.53;5096026;28;20096;-75
2021/12/03 03:19:40;;;;;;;9.40;3.50;;;;;;;0.52;100.00;100574.06;5078108;28;20055;-74
2021/12/03 03:22:06;;;;;;;11.32;3.92;;;;;;;0.81;100.00;100613.38;5058174;28;20028;-75
2021/12/03 03:24:34;;;;;;;11.70;3.50;;;;;;;0.58;100.00;100581.53;5051146;28;20386;-74
2021/12/03 03:27:01;;;;;;;10.73;3.90;;;;;;;0.71;100.00;100599.16;5077326;28;20097;-75
2021/12/03 03:29:27;;;;;;;13.13;4.20;;;;;;;0.43;100.00;100577.09;5070059;28;20028;-75
2021/12/03 03:31:53;;;;;;;11.93;3.85;;;;;;;0.82;100.00;100591.66;5091365;28;20046;-75
2021/12/03 03:34:19;;;;;;;12.73;3.47;;;;;;;0.68;100.00;100575.91;5064068;28;20051;-75
2021/12/03 03:36:44;;;;;;;9.93;2.95;;;;;;;0.45;100.00;100549.28;5080186;28;20028;-74
2021/12/03 03:39:12;;;;;;;10.77;3.85;;;;;;;0.70;100.00;100579.25;5078948;28;20060;-75
2021/12/03 03:41:42;;;;;;;10.90;3.53;;;;;;;0.63;100.00;100589.13;5084058;28;20024;-74
2021/12/03 03:44:09;;;;;;;10.23;3.35;;;;;;;0.75;100.00;100551.28;5069162;28;20043;-75
2021/12/03 03:46:37;;;;;;;11.25;3.75;;;;;;;0.79;100.00;100576.19;5067421;28;20457;-75
2021/12/03 03:49:03;;;;;;;12.20;2.53;;;;;;;0.69;100.00;100575.00;5053789;28;20036;-75
2021/12/03 03:51:36;;;;;;;8.25;2.90;;;;;;;0.60;100.00;100537.31;5075040;28;20367;-75
2021/12/03 03:54:04;;;;;;;10.48;2.85;;;;;;;0.80;100.00;100578.72;5080383;28;20031;-75
2021/12/03 03:56:31;;;;;;;13.30;2.72;;;;;;;0.70;100.00;100528.13;5083626;28;20558;-75
2021/12/03 03:59:05;;;;;;;10.82;2.22;;;;;;;0.80;100.00;100560.53;5079306;28;20028;-75
2021/12/03 04:01:41;;;;;;;11.77;2.10;;;;;;;0.89;100.00;100574.00;5061215;28;20419;-75
2021/12/03 04:04:08;;;;;;;8.10;2.20;;;;;;;0.94;100.00;100570.25;5077042;28;20055;-75
2021/12/03 04:06:37;;;;;;;12.45;1.98;;;;;;;0.90;100.00;100568.72;5060447;28;20028;-76
2021/12/03 04:09:07;;;;;;;8.73;1.65;;;;;;;0.88;100.00;100580.94;5094694;28;20103;-75
2021/12/03 04:11:33;;;;;;;7.25;1.90;;;;;;;0.98;100.00;100558.78;5059893;28;20028;-75
2021/12/03 04:14:02;;;;;;;10.60;2.15;;;;;;;1.08;100.00;100571.31;5076544;28;20024;-75
2021/12/03 04:16:30;;;;;;;10.07;1.90;;;;;;;0.86;100.00;100529.94;5075610;28;20024;-75
2021/12/03 04:18:59;;;;;;;12.48;1.75;;;;;;;0.75;100.00;100525.28;5094392;28;20016;-75
2021/12/03 04:21:28;;;;;;;10.70;2.20;;;;;;;1.07;100.00;100567.88;5075766;28;20327;-74
2021/12/03 04:23:54;;;;;;;9.90;2.20;;;;;;;0.79;100.00;100532.84;5075450;28;20020;-75
2021/12/03 04:26:19;;;;;;;11.13;2.00;;;;;;;0.74;100.00;100495.88;5093900;28;20168;-75
2021/12/03 04:28:46;;;;;;;10.35;2.13;;;;;;;0.88;100.00;100544.53;5075042;28;20020;-75
2021/12/03 04:31:12;;;;;;;8.63;1.73;;;;;;;0.94;100.00;100556.41;5075496;28;20030;-75
2021/12/03 04:33:38;;;;;;;12.13;2.10;;;;;;;0.95;100.00;100577.09;5093232;28;20067;-75
2021/12/03 04:36:04;;;;;;;9.48;1.75;;;;;;;0.72;100.00;100538.44;5075638;28;20419;-75
2021/12/03 04:38:30;;;;;;;8.10;1.83;;;;;;;0.81;100.00;100554.41;5075425;28;20020;-75
2021/12/03 04:40:56;;;;;;;9.25;1.70;;;;;;;0.88;100.00;100565.34;5093367;28;20127;-75
2021/12/03 04:43:23;;;;;;;9.40;1.63;;;;;;;0.74;100.00;100519.25;5073993;28;20165;-74
2021/12/03 04:45:49;;;;;;;12.40;2.20;;;;;;;0.79;100.00;100534.63;5092895;28;20370;-75
2021/12/03 04:48:17;;;;;;;9.05;1.83;;;;;;;0.72;100.00;100509.84;5093421;28;20020;-75
2021/12/03 04:50:43;;;;;;;9.68;1.60;;;;;;;0.84;100.00;100519.63;5074768;28;20046;-75
2021/12/03 04:53:10;;;;;;;11.57;2.58;;;;;;;0.97;100.00;100551.03;5058590;28;20027;-75
2021/12/03 04:55:36;;;;;;;6.32;1.83;;;;;;;0.62;100.00;100488.69;5074802;28;20035;-75
2021/12/03 04:58:03;;;;;;;11.55;1.88;;;;;;;0.99;100.00;100538.81;5058443;28;20046;-75
2021/12/03 05:00:35;;;;;;;7.22;1.75;;;;;;;1.06;100.00;100549.75;5077996;28;20028;-75
2021/12/03 05:03:01;;;;;;;8.25;1.70;;;;;;;0.92;100.00;100527.03;5045327;28;20180;-75
2021/12/03 05:05:32;;;;;;;8.70;1.40;;;;;;;0.77;100.00;100476.66;5093424;28;20032;-75
2021/12/03 05:08:02;;;;;;;8.13;1.67;;;;;;;1.10;100.00;100554.69;5075517;28;20081;-75
2021/12/03 05:10:30;;;;;;;9.77;1.60;;;;;;;0.83;100.00;100484.16;5075465;28;20035;-74
2021/12/03 05:13:01;;;;;;;7.78;1.33;;;;;;;1.07;100.00;100517.59;5076686;28;20024;-75
2021/12/03 05:15:26;;;;;;;7.90;1.60;;;;;;;1.04;100.00;100524.66;5093722;28;20024;-75
2021/12/03 05:17:56;;;;;;;9.38;2.00;;;;;;;1.05;100.00;100515.09;5064992;28;20051;-75
2021/12/03 05:20:21;;;;;;;9.85;1.67;;;;;;;0.83;100.00;100482.41;5092719;28;20087;-75
2021/12/03 05:22:47;;;;;;;11.65;1.98;;;;;;;1.12;100.00;100513.03;5093002;28;20020;-75
2021/12/03 05:25:13;;;;;;;11.73;2.42;;;;;;;1.28;100.00;100519.09;5093654;28;20107;-75
2021/12/03 05:27:39;;;;;;;9.07;1.65;;;;;;;1.01;100.00;100496.19;5042050;28;20070;-75
2021/12/03 05:30:08;;;;;;;7.88;1.65;;;;;;;1.10;100.00;100494.88;5074997;28;20024;-75
2021/12/03 05:32:33;;;;;;;10.40;2.05;;;;;;;1.01;100.00;100484.97;5076899;28;20081;-75
2021/12/03 05:34:59;;;;;;;10.13;2.30;;;;;;;0.79;100.00;100451.44;5076836;28;20056;-75
2021/12/03 05:37:26;;;;;;;13.23;2.40;;;;;;;1.18;100.00;100508.34;5082348;28;20076;-74
2021/12/03 05:39:53;;;;;;;13.13;1.88;;;;;;;1.27;100.00;100507.00;5063096;28;20313;-75
2021/12/03 05:42:19;;;;;;;7.13;1.77;;;;;;;1.22;100.00;100522.84;5060232;28;20020;-75
2021/12/03 05:44:44;;;;;;;11.55;1.90;;;;;;;0.94;100.00;100465.41;5075493;28;20026;-75
2021/12/03 05:47:10;;;;;;;10.80;1.92;;;;;;;1.26;100.00;100518.31;5058603;28;20054;-75
2021/12/03 05:49:36;;;;;;;12.50;2.10;;;;;;;1.01;100.00;100466.78;5049523;28;20020;-74
2021/12/03 05:52:02;;;;;;;11.20;1.63;;;;;;;1.12;100.00;100494.81;5086383;28;20115;-75
2021/12/03 05:54:28;;;;;;;10.45;2.28;;;;;;;1.22;100.00;100517.63;5078423;28;20377;-75
2021/12/03 05:56:54;;;;;;;12.10;2.10;;;;;;;1.28;100.00;100507.84;5070606;28;20116;-75
2021/12/03 05:59:20;;;;;;;10.57;2.03;;;;;;;1.22;100.00;100517.63;5090524;28;20019;-75
2021/12/03 06:01:46;;;;;;;10.90;1.83;;;;;;;0.88;100.00;100471.75;5092098;28;20450;-75
2021/12/03 06:04:12;;;;;;;10.45;2.28;;;;;;;1.27;100.00;100513.97;5091356;28;20078;-75
2021/12/03 06:06:38;;;;;;;10.02;1.90;;;;;;;1.17;100.00;100517.03;5092157;28;20495;-75
2021/12/03 06:09:04;;;;;;;11.55;1.90;;;;;;;1.01;100.00;100461.56;5073696;28;20123;-75
2021/12/03 06:11:33;;;;;;;10.65;2.25;;;;;;;1.34;100.00;100503.16;5074096;28;20028;-75
2021/12/03 06:13:59;;;;;;;12.27;2.55;;;;;;;1.01;100.00;100466.78;5057698;28;20042;-75
2021/12/03 06:16:25;;;;;;;13.18;2.17;;;;;;;1.39;100.00;100505.53;5056162;28;20107;-75
2021/12/03 06:18:50;;;;;;;11.18;2.10;;;;;;;1.29;100.00;100493.91;5054099;28;20031;-74
2021/12/03 06:21:16;;;;;;;11.95;2.42;;;;;;;1.21;100.00;100483.94;5067678;28;20069;-73
2021/12/03 06:23:42;;;;;;;14.30;3.28;;;;;;;1.35;100.00;100484.03;5052760;28;20359;-75
2021/12/03 06:26:09;;;;;;;12.07;2.97;;;;;;;1.07;100.00;100466.44;5085184;28;20106;-74
2021/12/03 06:28:37;;;;;;;11.32;2.95;;;;;;;1.23;100.00;100489.88;5094029;28;20020;-75
2021/12/03 06:31:06;;;;;;;13.90;2.80;;;;;;;0.91;100.00;100443.03;5058650;28;20129;-74
2021/12/03 06:33:32;;;;;;;20.33;3.17;;;;;;;1.26;100.00;100494.91;5056564;28;20033;-74
2021/12/03 06:35:59;;;;;;;17.05;2.97;;;;;;;1.40;100.00;100487.19;5083018;28;20084;-74
2021/12/03 06:38:26;;;;;;;13.18;3.10;;;;;;;1.24;100.00;100484.59;5058997;28;20024;-73
2021/12/03 06:40:53;;;;;;;11.80;2.92;;;;;;;1.38;100.00;100503.81;5062447;28;20342;-73
2021/12/03 06:43:21;;;;;;;15.50;2.83;;;;;;;1.26;100.00;100471.50;5094987;28;20027;-74
2021/12/03 06:45:47;;;;;;;14.20;2.67;;;;;;;1.22;100.00;100469.97;5094119;28;20413;-72
2021/12/03 06:48:14;;;;;;;10.40;2.95;;;;;;;1.56;100.00;100495.03;5042594;28;20364;-73
2021/12/03 06:50:40;;;;;;;21.42;2.70;;;;;;;1.54;100.00;100478.66;5061645;22;20061;-73
2021/12/03 06:53:10;;;;;;;8.25;2.72;;;;;;;1.31;100.00;100456.47;5073172;22;20172;-73
2021/12/03 06:55:44;;;;;;;14.80;2.55;;;;;;;1.56;100.00;100470.75;5048939;28;20437;-71
2021/12/03 06:58:10;;;;;;;19.02;3.58;;;;;;;1.30;100.00;100440.97;5032909;28;20025;-72
2021/12/03 07:00:36;;;;;;;10.50;2.83;;;;;;;1.56;100.00;100474.19;5056630;28;20047;-72
2021/12/03 07:03:02;;;;;;;13.82;2.65;;;;;;;1.51;100.00;100462.38;5068543;28;20470;-74
2021/12/03 07:05:28;;;;;;;16.48;3.03;;;;;;;1.37;100.00;100450.13;5061767;23;20455;-72
2021/12/03 07:07:59;;;;;;;18.17;2.83;;;;;;;1.52;100.00;100488.31;5059764;22;20098;-73
2021/12/03 07:10:28;;;;;;;14.65;2.83;;;;;;;1.15;100.00;100427.03;5031245;28;20029;-73
2021/12/03 07:12:54;;;;;;;15.45;2.88;;;;;;;1.33;100.00;100433.84;5045995;23;20064;-76
2021/12/03 07:15:23;;;;;;;20.48;3.53;;;;;;;1.59;100.00;100489.66;5049195;28;20041;-73
2021/12/03 07:17:52;;;;;;;14.30;2.60;;;;;;;1.54;100.00;100457.00;5018415;28;20022;-72
2021/12/03 07:20:20;;;;;;;12.60;2.42;;;;;;;1.19;100.00;100421.56;5048013;28;20029;-73
2021/12/03 07:22:45;;;;;;;18.02;2.70;;;;;;;1.57;100.00;100442.06;5016312;28;20018;-73
2021/12/03 07:25:12;;;;;;;10.02;2.67;;;;;;;1.37;100.00;100421.50;5031874;28;20022;-72
2021/12/03 07:27:38;;;;;;;14.00;3.33;;;;;;;1.67;100.00;100456.22;5070418;22;20147;-73
2021/12/03 07:30:09;;;;;;;12.23;3.13;;;;;;;1.64;100.00;100442.56;5076009;28;20032;-73
2021/12/03 07:32:35;;;;;;;17.63;3.40;;;;;;;1.63;100.00;100456.50;5061397;28;20036;-74
2021/12/03 07:35:06;;;;;;;13.25;3.00;;;;;;;1.40;100.00;100403.13;5058724;28;20070;-72
2021/12/03 07:37:32;;;;;;;19.00;3.50;;;;;;;1.58;100.00;100458.50;5092899;28;20023;-74
2021/12/03 07:40:03;;;;;;;16.20;3.60;;;;;;;1.23;100.00;100372.84;5077335;28;20028;-74
2021/12/03 07:42:30;;;;;;;20.17;3.65;;;;;;;1.34;100.00;100412.13;5081383;28;20115;-75
2021/12/03 07:44:56;;;;;;;15.02;3.33;;;;;;;1.27;100.00;100402.94;5076103;28;20034;-75
2021/12/03 07:47:24;;;;;;;17.60;3.47;;;;;;;1.55;100.00;100425.69;5074646;28;20012;-75
2021/12/03 07:49:51;;;;;;;16.75;3.70;;;;;;;1.34;100.00;100406.03;5083603;28;20050;-75
2021/12/03 07:52:21;;;;;;;17.42;3.35;;;;;;;1.62;100.00;100436.59;5076155;28;21431;-76
2021/12/03 07:54:48;;;;;;;22.65;4.03;;;;;;;1.52;100.00;100422.41;5077025;28;20055;-76
2021/12/03 07:57:14;;;;;;;13.43;3.85;;;;;;;1.39;100.00;100402.28;5094652;28;20052;-75
2021/12/03 07:59:40;;;;;;;19.17;3.67;;;;;;;1.23;100.00;100378.88;5094237;28;20012;-75
2021/12/03 08:02:06;;;;;;;16.23;3.75;;;;;;;1.09;100.00;100368.41;5075527;28;20028;-75
2021/12/03 08:04:32;;;;;;;20.08;4.00;;;;;;;1.07;100.00;100374.56;5075588;28;20028;-75
2021/12/03 08:07:00;;;;;;;20.13;4.10;;;;;;;1.48;100.00;100433.91;5075857;28;20114;-75
2021/12/03 08:09:25;;;;;;;20.83;4.85;;;;;;;1.31;100.00;100393.22;5093277;28;20015;-75
2021/12/03 08:11:51;;;;;;;17.38;4.10;;;;;;;1.30;100.00;100400.19;5093863;28;20073;-75
2021/12/03 08:14:17;;;;;;;18.55;4.00;;;;;;;1.33;100.00;100417.38;5092613;28;20027;-74
2021/12/03 08:16:43;;;;;;;21.85;5.00;;;;;;;1.32;100.00;100407.88;5058644;28;20031;-75
2021/12/03 08:19:09;;;;;;;17.45;4.00;;;;;;;1.25;100.00;100426.47;5094302;28;20088;-75
2021/12/03 08:21:35;;;;;;;14.43;3.75;;;;;;;1.03;100.00;100382.56;5092388;28;20020;-74
2021/12/03 08:24:00;;;;;;;18.20;4.00;;;;;;;1.15;100.00;100368.03;5075948;28;20019;-74
2021/12/03 08:26:29;;;;;;;23.80;4.03;;;;;;;1.29;100.00;100416.69;5094170;28;20031;-75
2021/12/03 08:28:56;;;;;;;14.20;3.95;;;;;;;1.19;100.00;100366.97;5080125;28;20036;-74
2021/12/03 08:31:24;;;;;;;20.67;4.07;;;;;;;1.13;100.00;100350.84;5075984;28;20032;-74
2021/12/03 08:33:51;;;;;;;12.25;3.63;;;;;;;1.46;100.00;100408.00;5075516;28;20480;-75
2021/12/03 08:36:17;;;;;;;18.60;3.80;;;;;;;1.37;100.00;100404.13;5064657;28;20047;-75
2021/12/03 08:38:44;;;;;;;15.45;4.07;;;;;;;1.36;100.00;100376.44;5070030;28;20036;-75
2021/12/03 08:41:12;;;;;;;17.30;4.25;;;;;;;0.96;100.00;100325.78;5074618;28;20098;-75
2021/12/03 08:43:38;;;;;;;23.73;4.45;;;;;;;1.26;100.00;100398.69;5063617;28;20038;-75
2021/12/03 08:46:14;;;;;;;13.55;3.30;;;;;;;1.03;100.00;100346.16;5075713;28;20025;-75
2021/12/03 08:48:46;;;;;;;16.02;3.50;;;;;;;0.98;100.00;100342.97;5059016;28;20102;-75
2021/12/03 08:56:44;;;;;;;12.60;3.35;;;;;;;1.08;100.00;100377.09;5075306;28;20040;-76
2021/12/03 08:59:09;;;;;;;14.55;3.58;;;;;;;1.15;100.00;100382.81;5074816;28;20019;-75
2021/12/03 09:01:35;;;;;;;13.40;3.30;;;;;;;1.21;100.00;100390.28;5074925;28;20489;-75
2021/12/03 09:04:01;;;;;;;13.43;3.80;;;;;;;1.10;100.00;100356.22;5058680;28;20042;-75
2021/12/03 09:06:27;;;;;;;15.98;3.53;;;;;;;1.28;100.00;100391.63;5075996;28;20028;-75
2021/12/03 09:08:53;;;;;;;11.15;3.33;;;;;;;1.34;100.00;100369.63;5094670;28;20058;-75
2021/12/03 09:11:19;;;;;;;15.95;3.50;;;;;;;1.14;100.00;100335.16;5063646;28;20046;-75
2021/12/03 09:13:47;;;;;;;13.50;3.33;;;;;;;1.42;100.00;100365.69;5095027;28;20028;-75
2021/12/03 09:16:20;;;;;;;13.90;3.42;;;;;;;1.40;100.00;100370.13;5095966;28;20028;-75
2021/12/03 09:18:53;;;;;;;14.32;3.33;;;;;;;1.35;100.00;100350.50;5093002;28;20611;-75
2021/12/03 09:21:25;;;;;;;14.57;3.72;;;;;;;1.30;100.00;100358.56;5092276;28;20492;-75
2021/12/03 09:26:54;;;;;;;12.10;2.63;;;;;;;1.21;100.00;100315.69;5013086;28;20025;-75
2021/12/03 09:29:27;;;;;;;14.80;2.78;;;;;;;1.22;100.00;100327.75;5012164;28;20538;-75
2021/12/03 09:32:01;;;;;;;11.60;2.90;;;;;;;1.32;100.00;100346.31;5044462;28;20029;-75
2021/12/03 09:34:32;;;;;;;12.13;2.85;;;;;;;1.08;100.00;100316.47;5046154;28;20077;-75
2021/12/03 09:36:58;;;;;;;10.77;2.90;;;;;;;1.07;100.00;100297.44;5016825;28;20037;-76
2021/12/03 09:39:27;;;;;;;11.13;2.70;;;;;;;1.37;100.00;100341.69;5051536;28;20545;-76
2021/12/03 09:41:56;;;;;;;10.35;3.10;;;;;;;1.23;100.00;100307.81;5050608;28;20174;-75
2021/12/03 09:44:22;;;;;;;10.45;2.53;;;;;;;1.54;100.00;100327.72;5035075;28;20546;-75
2021/12/03 09:46:49;;;;;;;7.28;1.90;;;;;;;1.28;100.00;100277.19;5051320;28;20033;-75
2021/12/03 09:52:00;;;;;;;10.93;2.45;;;;;;;1.46;100.00;100298.72;5032617;28;20044;-73
2021/12/03 09:54:29;;;;;;;13.85;2.10;;;;;;;1.25;100.00;100286.00;4989601;28;20029;-75
2021/12/03 09:57:09;;;;;;;9.60;2.22;;;;;;;1.41;100.00;100311.97;5038368;28;20093;-75
2021/12/03 10:15:15;;;;;;;13.25;2.30;;;;;;;1.55;100.00;100289.53;5073978;28;20043;-74
2021/12/03 10:35:00;;;;;;;14.20;2.97;;;;;;;1.32;100.00;100255.28;5049197;28;20134;-73
2021/12/03 10:38:03;;;;;;;11.13;2.53;;;;;;;1.32;100.00;100247.47;5027779;28;20052;-73
2021/12/03 10:43:17;;;;;;;20.55;3.50;;;;;;;0.97;100.00;100213.88;5073771;28;20032;-74
2021/12/03 10:48:41;;;;;;;14.75;4.10;;;;;;;1.21;100.00;100249.84;5083034;28;20044;-74
2021/12/03 10:51:28;;;;;;;19.67;4.10;;;;;;;0.84;100.00;100207.69;5080275;28;20056;-74
2021/12/03 11:19:22;;;;;;;20.45;6.90;;;;;;;0.66;100.00;100135.97;5037367;28;20041;-75
2021/12/03 11:38:48;;;;;;;15.15;4.85;;;;;;;0.92;100.00;100160.50;5025493;28;20553;-74
2021/12/03 11:45:09;;;;;;;15.73;3.97;;;;;;;0.95;100.00;100129.94;5018503;28;20037;-75
2021/12/03 11:48:03;;;;;;;13.63;4.30;;;;;;;1.04;100.00;100124.22;5035005;28;20041;-75
2021/12/03 12:05:24;;;;;;;16.85;4.55;;;;;;;1.05;100.00;100086.06;5062889;28;20032;-75
2021/12/03 12:16:55;;;;;;;15.57;4.93;;;;;;;1.17;100.00;100079.28;5034031;28;20037;-75
2021/12/03 12:19:50;;;;;;;12.77;4.68;;;;;;;1.27;100.00;100046.59;5034174;28;20036;-73
2021/12/03 12:40:18;;;;;;;12.45;3.85;;;;;;;1.17;100.00;100002.09;5051359;28;20490;-75
2021/12/03 13:17:40;;;;;;;26.83;11.05;;;;;;;1.87;100.00;99994.28;5026989;28;20177;-79
2021/12/03 13:23:16;;;;;;;13.25;4.72;;;;;;;1.50;100.00;99945.50;4976873;28;20441;-76
2021/12/03 13:40:53;;;;;;;13.43;4.65;;;;;;;1.99;100.00;99989.22;4973801;28;20384;-77
2021/12/03 14:02:07;;;;;;;14.18;6.45;;;;;;;1.85;100.00;99951.91;4942542;29;20043;-81
2021/12/03 14:36:47;;;;;;;16.08;7.25;;;;;;;1.65;100.00;99942.75;5100725;28;20032;-76
2021/12/03 14:39:48;;;;;;;14.10;7.43;;;;;;;1.84;100.00;99963.25;5085757;28;20111;-79
2021/12/03 14:47:49;;;;;;;48.25;23.15;;;;;;;1.95;100.00;99956.50;5095588;28;20028;-76
2021/12/03 14:50:42;;;;;;;11.93;6.85;;;;;;;1.69;100.00;99924.34;5060388;28;20021;-75
2021/12/03 14:55:34;;;;;;;13.38;6.85;;;;;;;1.70;100.00;99918.22;5070295;28;20103;-75
2021/12/03 14:58:19;;;;;;;12.27;7.57;;;;;;;1.69;100.00;99919.16;5094422;28;20504;-75
2021/12/03 15:04:54;;;;;;;13.57;7.57;;;;;;;1.81;100.00;99936.56;5094837;28;20131;-75
2021/12/03 15:07:31;;;;;;;12.65;7.68;;;;;;;1.66;100.00;99909.78;5090159;28;20035;-75
2021/12/03 15:09:57;;;;;;;15.65;8.07;;;;;;;1.78;100.00;99915.97;5072806;28;20425;-76
2021/12/03 15:12:57;;;;;;;12.05;7.85;;;;;;;1.52;100.00;99870.78;5089536;28;20024;-75
2021/12/03 15:23:44;;;;;;;15.77;9.75;;;;;;;1.88;100.00;99936.09;5066059;28;20032;-75
2021/12/03 15:29:27;;;;;;;63.05;37.47;;;;;;;1.86;100.00;99937.09;5071101;28;20738;-76
2021/12/03 15:31:57;;;;;;;84.43;49.20;;;;;;;1.43;100.00;99865.25;5086836;28;20130;-74
2021/12/03 16:04:58;;;;;;;30.02;17.98;;;;;;;1.81;100.00;99915.75;5050891;28;20040;-76
2021/12/03 16:18:34;;;;;;;45.00;24.13;;;;;;;1.66;100.00;99853.34;4957825;28;20031;-80
2021/12/03 16:46:19;;;;;;;28.03;16.57;;;;;;;2.03;100.00;99910.81;5013876;28;20025;-78
2021/12/03 16:51:48;;;;;;;24.00;15.90;;;;;;;1.76;100.00;99843.16;5045801;28;20049;-75
2021/12/03 16:54:20;;;;;;;24.48;14.55;;;;;;;1.95;100.00;99889.63;5026983;28;20049;-74
2021/12/03 16:56:49;;;;;;;22.88;14.60;;;;;;;2.02;100.00;99911.75;5010042;28;20539;-77
2021/12/03 16:59:15;;;;;;;26.77;15.25;;;;;;;1.49;100.00;99821.56;5027834;28;20048;-78
2021/12/03 17:04:53;;;;;;;26.05;15.20;;;;;;;1.53;100.00;99818.66;5022852;28;20053;-73